createdAt,value
2018-12-15T00:00:09.168Z,6.80
2018-12-15T00:02:40.390Z,8.73
2018-12-15T00:05:11.509Z,7.85
2018-12-15T00:07:42.495Z,8.70
2018-12-15T00:10:13.592Z,8.53
2018-12-15T00:12:44.507Z,8.00
2018-12-15T00:15:15.291Z,9.03
2018-12-15T00:17:46.124Z,8.88
2018-12-15T00:20:17.027Z,8.20
2018-12-15T00:22:48.455Z,8.88
2018-12-15T00:25:19.125Z,9.33
2018-12-15T00:27:50.681Z,8.93
2018-12-15T00:30:21.407Z,9.38
2018-12-15T00:32:52.144Z,9.10
2018-12-15T00:35:22.923Z,9.13
2018-12-15T00:37:54.654Z,8.40
2018-12-15T00:40:25.477Z,9.23
2018-12-15T00:42:57.632Z,8.05
2018-12-15T00:45:28.419Z,9.03
2018-12-15T00:47:59.529Z,8.68
2018-12-15T00:50:30.421Z,8.00
2018-12-15T00:53:01.203Z,6.25
2018-12-15T00:55:31.948Z,5.35
2018-12-15T00:58:02.756Z,5.12
2018-12-15T01:00:34.737Z,6.33
2018-12-15T01:03:06.961Z,7.85
2018-12-15T01:05:37.779Z,8.58
2018-12-15T01:08:08.558Z,13.85
2018-12-15T01:10:39.482Z,16.48
2018-12-15T01:13:10.576Z,16.00
2018-12-15T01:15:46.490Z,9.98
2018-12-15T01:18:17.529Z,7.75
2018-12-15T01:20:48.243Z,5.40
2018-12-15T01:23:19.268Z,4.80
2018-12-15T01:25:49.926Z,4.40
2018-12-15T01:28:21.281Z,4.50
2018-12-15T01:30:52.693Z,4.70
2018-12-15T01:33:23.710Z,5.47
2018-12-15T01:35:54.720Z,4.67
2018-12-15T01:38:25.746Z,4.47
2018-12-15T01:40:56.938Z,4.78
2018-12-15T01:43:28.030Z,4.75
2018-12-15T01:45:59.050Z,3.85
2018-12-15T01:48:30.244Z,4.80
2018-12-15T01:51:01.325Z,4.25
2018-12-15T01:53:32.703Z,4.03
2018-12-15T01:56:04.113Z,3.62
2018-12-15T01:58:35.234Z,4.17
2018-12-15T02:01:06.232Z,3.83
2018-12-15T02:03:37.337Z,4.15
2018-12-15T02:06:08.471Z,4.17
2018-12-15T02:08:39.386Z,4.45
2018-12-15T02:11:10.493Z,4.05
2018-12-15T02:13:41.592Z,4.35
2018-12-15T02:16:12.846Z,4.05
2018-12-15T02:18:43.958Z,4.20
2018-12-15T02:21:14.952Z,3.85
2018-12-15T02:23:46.224Z,4.03
2018-12-15T02:26:17.052Z,3.95
2018-12-15T02:28:48.018Z,3.50
2018-12-15T02:31:18.888Z,3.70
2018-12-15T02:33:49.716Z,3.65
2018-12-15T02:36:21.238Z,3.75
2018-12-15T02:38:51.886Z,3.55
2018-12-15T02:41:23.446Z,4.00
2018-12-15T02:43:54.190Z,3.98
2018-12-15T02:46:25.433Z,3.95
2018-12-15T02:48:56.060Z,3.70
2018-12-15T02:51:26.873Z,3.65
2018-12-15T02:53:58.426Z,3.80
2018-12-15T02:56:29.177Z,3.40
2018-12-15T02:59:00.202Z,3.55
2018-12-15T03:01:31.848Z,3.33
2018-12-15T03:04:02.574Z,3.47
2018-12-15T03:06:34.223Z,3.50
2018-12-15T03:09:06.510Z,3.02
2018-12-15T03:11:37.448Z,3.27
2018-12-15T03:14:09.317Z,3.42
2018-12-15T03:16:46.672Z,3.45
2018-12-15T03:19:17.600Z,3.30
2018-12-15T03:21:48.140Z,3.77
2018-12-15T03:24:19.283Z,4.25
2018-12-15T03:26:50.205Z,3.70
2018-12-15T03:29:21.267Z,4.28
2018-12-15T03:31:51.975Z,4.47
2018-12-15T03:34:22.810Z,3.58
2018-12-15T03:36:53.792Z,3.47
2018-12-15T03:39:24.783Z,3.80
2018-12-15T03:41:56.953Z,3.55
2018-12-15T03:44:27.810Z,3.62
2018-12-15T03:46:58.682Z,3.58
2018-12-15T03:49:29.434Z,3.27
2018-12-15T03:52:00.206Z,3.27
2018-12-15T03:54:30.947Z,3.50
2018-12-15T03:59:24.191Z,3.50
2018-12-15T04:01:55.027Z,3.50
2018-12-15T04:04:26.149Z,3.65
2018-12-15T04:06:56.993Z,3.77
2018-12-15T04:09:27.945Z,3.50
2018-12-15T04:11:58.697Z,3.33
2018-12-15T04:14:29.609Z,3.75
2018-12-15T04:17:00.626Z,3.20
2018-12-15T04:19:31.587Z,4.12
2018-12-15T04:22:20.185Z,3.50
2018-12-15T04:24:51.028Z,3.45
2018-12-15T04:27:21.646Z,3.67
2018-12-15T04:29:53.770Z,3.22
2018-12-15T04:32:24.360Z,3.37
2018-12-15T04:34:55.190Z,3.30
2018-12-15T04:37:25.739Z,3.55
2018-12-15T04:39:56.310Z,3.47
2018-12-15T04:42:27.295Z,4.08
2018-12-15T04:44:58.108Z,3.85
2018-12-15T04:47:29.386Z,4.55
2018-12-15T04:50:00.227Z,4.50
2018-12-15T04:52:30.973Z,7.35
2018-12-15T04:55:01.705Z,4.08
2018-12-15T04:57:32.481Z,3.98
2018-12-15T05:00:03.251Z,4.28
2018-12-15T05:02:34.162Z,4.40
2018-12-15T05:05:05.375Z,4.37
2018-12-15T05:07:36.264Z,4.40
2018-12-15T05:10:07.526Z,4.72
2018-12-15T05:12:38.250Z,4.45
2018-12-15T05:15:08.935Z,4.50
2018-12-15T05:17:39.694Z,4.47
2018-12-15T05:20:10.420Z,4.72
2018-12-15T05:22:41.238Z,5.10
2018-12-15T05:25:12.948Z,5.12
2018-12-15T05:27:43.832Z,5.65
2018-12-15T05:30:14.662Z,5.92
2018-12-15T05:32:45.559Z,5.97
2018-12-15T05:35:16.365Z,6.37
2018-12-15T05:37:47.313Z,5.78
2018-12-15T05:40:18.302Z,8.30
2018-12-15T05:42:49.313Z,8.23
2018-12-15T05:45:20.222Z,5.92
2018-12-15T05:47:51.245Z,5.20
2018-12-15T05:50:22.264Z,6.95
2018-12-15T05:52:53.031Z,5.67
2018-12-15T05:55:24.104Z,5.92
2018-12-15T05:57:55.054Z,5.47
2018-12-15T06:00:26.338Z,5.40
2018-12-15T06:02:57.347Z,5.80
2018-12-15T06:05:28.765Z,6.92
2018-12-15T06:07:59.732Z,5.40
2018-12-15T06:10:30.970Z,6.97
2018-12-15T06:13:03.073Z,6.65
2018-12-15T06:18:18.190Z,6.70
2018-12-15T06:20:49.547Z,7.15
2018-12-15T06:23:20.639Z,5.90
2018-12-15T06:25:52.569Z,6.60
2018-12-15T06:28:23.873Z,6.53
2018-12-15T06:30:55.080Z,6.05
2018-12-15T06:33:26.460Z,6.12
2018-12-15T06:35:57.967Z,6.58
2018-12-15T06:38:29.030Z,6.62
2018-12-15T06:40:59.820Z,7.35
2018-12-15T06:43:31.132Z,6.10
2018-12-15T06:46:02.195Z,6.70
2018-12-15T06:48:38.192Z,6.47
2018-12-15T06:51:05.861Z,9.85
2018-12-15T06:53:36.788Z,17.62
2018-12-15T06:56:07.645Z,17.12
2018-12-15T06:58:38.379Z,9.58
2018-12-15T07:01:10.534Z,24.07
2018-12-15T07:03:41.722Z,40.45
2018-12-15T07:06:13.433Z,17.98
2018-12-15T07:08:45.045Z,8.30
2018-12-15T07:11:16.049Z,8.88
2018-12-15T07:13:47.130Z,7.85
2018-12-15T07:16:18.040Z,12.28
2018-12-15T07:18:50.038Z,9.55
2018-12-15T07:21:21.429Z,6.22
2018-12-15T07:23:52.327Z,5.75
2018-12-15T07:26:23.651Z,6.40
2018-12-15T07:28:55.537Z,6.78
2018-12-15T07:31:27.010Z,4.83
2018-12-15T07:33:58.061Z,4.92
2018-12-15T07:36:28.892Z,4.60
2018-12-15T07:39:00.233Z,5.03
2018-12-15T07:41:31.067Z,4.63
2018-12-15T07:44:02.194Z,6.20
2018-12-15T07:46:33.207Z,4.27
2018-12-15T07:49:04.108Z,4.40
2018-12-15T07:51:35.101Z,5.63
2018-12-15T07:54:05.918Z,4.70
2018-12-15T07:56:38.486Z,5.40
2018-12-15T07:59:09.901Z,7.57
2018-12-15T08:01:40.674Z,5.17
2018-12-15T08:04:11.590Z,4.43
2018-12-15T08:06:42.639Z,4.50
2018-12-15T08:09:13.558Z,3.50
2018-12-15T08:11:49.516Z,4.43
2018-12-15T08:14:20.473Z,4.10
2018-12-15T08:16:51.511Z,4.20
2018-12-15T08:19:22.416Z,3.90
2018-12-15T08:21:53.718Z,3.90
2018-12-15T08:24:24.574Z,4.03
2018-12-15T08:26:55.565Z,3.43
2018-12-15T08:29:27.305Z,3.40
2018-12-15T08:31:58.287Z,3.30
2018-12-15T08:34:29.285Z,3.63
2018-12-15T08:37:00.279Z,3.87
2018-12-15T08:39:31.387Z,4.00
2018-12-15T08:42:02.808Z,4.10
2018-12-15T08:44:33.729Z,4.30
2018-12-15T08:47:05.454Z,4.30
2018-12-15T08:49:36.418Z,3.90
2018-12-15T08:52:08.650Z,4.03
2018-12-15T08:54:39.971Z,3.27
2018-12-15T08:57:13.338Z,3.40
2018-12-15T08:59:45.398Z,3.40
2018-12-15T09:02:16.580Z,4.90
2018-12-15T09:04:48.279Z,5.50
2018-12-15T09:07:20.331Z,4.63
2018-12-15T09:09:52.337Z,3.30
2018-12-15T09:12:24.210Z,3.77
2018-12-15T09:14:55.710Z,3.60
2018-12-15T09:17:26.822Z,3.60
2018-12-15T09:19:57.816Z,3.10
2018-12-15T09:22:29.551Z,4.23
2018-12-15T09:25:02.810Z,3.50
2018-12-15T09:27:33.798Z,4.00
2018-12-15T09:30:05.103Z,4.03
2018-12-15T09:32:35.919Z,3.53
2018-12-15T09:35:07.086Z,3.43
2018-12-15T09:37:38.217Z,3.77
2018-12-15T09:40:09.139Z,3.60
2018-12-15T09:42:40.120Z,3.93
2018-12-15T09:45:11.363Z,4.50
2018-12-15T09:47:42.098Z,3.93
2018-12-15T09:50:14.445Z,4.10
2018-12-15T09:52:45.542Z,3.47
2018-12-15T09:55:16.633Z,4.27
2018-12-15T09:57:47.925Z,3.80
2018-12-15T10:00:19.833Z,4.00
2018-12-15T10:02:51.375Z,3.70
2018-12-15T10:05:22.257Z,4.00
2018-12-15T10:07:53.615Z,4.40
2018-12-15T10:10:25.579Z,4.40
2018-12-15T10:12:57.416Z,4.30
2018-12-15T10:15:28.815Z,4.57
2018-12-15T10:17:59.804Z,4.33
2018-12-15T10:20:30.753Z,4.40
2018-12-15T10:23:01.895Z,4.60
2018-12-15T10:25:32.687Z,4.43
2018-12-15T10:28:03.575Z,4.27
2018-12-15T10:30:39.513Z,4.20
2018-12-15T10:33:11.043Z,4.70
2018-12-15T10:35:42.060Z,5.07
2018-12-15T10:38:12.864Z,3.87
2018-12-15T10:40:44.006Z,4.27
2018-12-15T10:43:15.326Z,4.13
2018-12-15T10:45:46.470Z,4.23
2018-12-15T10:48:17.483Z,4.40
2018-12-15T10:50:48.384Z,3.90
2018-12-15T10:53:19.086Z,4.07
2018-12-15T10:55:50.554Z,4.80
2018-12-15T10:58:21.474Z,4.70
2018-12-15T11:00:59.482Z,4.60
2018-12-15T11:03:30.397Z,4.00
2018-12-15T11:06:01.322Z,4.07
2018-12-15T11:08:32.857Z,4.53
2018-12-15T11:11:04.954Z,5.40
2018-12-15T11:13:36.274Z,4.87
2018-12-15T11:16:07.317Z,4.93
2018-12-15T11:18:38.157Z,4.90
2018-12-15T11:21:08.833Z,5.10
2018-12-15T11:23:39.763Z,4.87
2018-12-15T11:26:10.775Z,8.10
2018-12-15T11:28:42.263Z,8.80
2018-12-15T11:31:14.967Z,14.53
2018-12-15T11:33:46.084Z,7.63
2018-12-15T11:36:17.448Z,7.33
2018-12-15T11:38:48.182Z,4.20
2018-12-15T11:41:19.093Z,6.30
2018-12-15T11:43:50.269Z,4.73
2018-12-15T11:46:21.497Z,5.17
2018-12-15T11:48:52.212Z,4.63
2018-12-15T11:51:23.852Z,3.73
2018-12-15T11:53:55.186Z,5.13
2018-12-15T11:56:26.316Z,4.33
2018-12-15T11:58:57.450Z,4.00
2018-12-15T12:01:28.586Z,4.67
2018-12-15T12:03:59.646Z,5.97
2018-12-15T12:06:31.011Z,4.17
2018-12-15T12:09:03.549Z,4.47
2018-12-15T12:11:35.320Z,6.73
2018-12-15T12:14:06.972Z,3.63
2018-12-15T12:16:38.603Z,5.27
2018-12-15T12:19:09.727Z,3.40
2018-12-15T12:21:41.767Z,5.47
2018-12-15T12:24:13.918Z,3.50
2018-12-15T12:26:46.848Z,3.93
2018-12-15T12:29:18.076Z,4.67
2018-12-15T12:31:49.413Z,3.90
2018-12-15T12:34:20.792Z,3.73
2018-12-15T12:36:53.531Z,3.37
2018-12-15T12:39:26.076Z,3.17
2018-12-15T12:41:57.224Z,4.10
2018-12-15T12:44:28.367Z,3.40
2018-12-15T12:46:59.310Z,6.47
2018-12-15T12:49:30.183Z,3.90
2018-12-15T12:52:01.016Z,4.83
2018-12-15T12:54:32.166Z,5.60
2018-12-15T12:57:03.199Z,6.40
2018-12-15T12:59:35.790Z,12.57
2018-12-15T13:02:06.983Z,16.03
2018-12-15T13:04:38.585Z,16.30
2018-12-15T13:07:09.969Z,6.60
2018-12-15T13:09:40.876Z,8.67
2018-12-15T13:12:11.988Z,5.50
2018-12-15T13:14:43.041Z,5.00
2018-12-15T13:17:16.127Z,4.00
2018-12-15T13:19:48.365Z,5.80
2018-12-15T13:22:19.518Z,4.33
2018-12-15T13:24:51.540Z,4.70
2018-12-15T13:27:23.305Z,4.33
2018-12-15T13:29:54.825Z,4.17
2018-12-15T13:32:25.751Z,4.60
2018-12-15T13:34:56.860Z,3.93
2018-12-15T13:37:27.786Z,4.07
2018-12-15T13:39:59.364Z,4.60
2018-12-15T13:42:30.598Z,5.30
2018-12-15T13:45:01.560Z,4.50
2018-12-15T13:47:32.868Z,6.73
2018-12-15T13:50:10.148Z,5.80
2018-12-15T13:52:40.180Z,4.20
2018-12-15T13:55:11.169Z,4.00
2018-12-15T13:57:43.487Z,4.03
2018-12-15T14:00:14.761Z,4.10
2018-12-15T14:02:45.964Z,3.90
2018-12-15T14:05:16.930Z,3.80
2018-12-15T14:07:47.986Z,3.87
2018-12-15T14:10:19.309Z,3.97
2018-12-15T14:12:50.344Z,4.07
2018-12-15T14:15:21.529Z,3.10
2018-12-15T14:17:52.614Z,3.73
2018-12-15T14:20:24.384Z,3.60
2018-12-15T14:22:55.642Z,4.33
2018-12-15T14:25:27.152Z,16.30
2018-12-15T14:27:58.641Z,13.93
2018-12-15T14:30:29.868Z,5.37
2018-12-15T14:33:01.134Z,7.93
2018-12-15T14:35:32.547Z,23.00
2018-12-15T14:38:04.478Z,12.57
2018-12-15T14:40:36.906Z,17.77
2018-12-15T14:43:07.677Z,14.87
2018-12-15T14:45:39.381Z,23.23
2018-12-15T14:48:10.355Z,15.47
2018-12-15T14:50:41.470Z,10.43
2018-12-15T14:53:12.661Z,10.53
2018-12-15T14:55:43.533Z,7.73
2018-12-15T14:58:14.920Z,5.97
2018-12-15T15:00:46.635Z,11.17
2018-12-15T15:03:17.595Z,17.93
2018-12-15T15:05:49.348Z,17.97
2018-12-15T15:08:20.294Z,10.17
2018-12-15T15:10:51.858Z,8.97
2018-12-15T15:13:23.009Z,9.53
2018-12-15T15:15:54.151Z,6.37
2018-12-15T15:18:25.225Z,8.27
2018-12-15T15:20:56.891Z,9.80
2018-12-15T15:23:27.806Z,10.50
2018-12-15T15:25:59.695Z,5.03
2018-12-15T15:28:31.715Z,4.87
2018-12-15T15:31:03.396Z,6.13
2018-12-15T15:33:35.022Z,5.17
2018-12-15T15:36:06.180Z,7.17
2018-12-15T15:38:37.505Z,4.80
2018-12-15T15:41:10.267Z,8.33
2018-12-15T15:43:43.000Z,7.60
2018-12-15T15:46:14.738Z,9.30
2018-12-15T15:48:46.255Z,8.10
2018-12-15T15:51:18.433Z,6.40
2018-12-15T15:53:49.855Z,6.15
2018-12-15T15:56:21.186Z,9.23
2018-12-15T15:58:53.348Z,6.60
2018-12-15T16:01:24.684Z,28.98
2018-12-15T16:03:56.546Z,17.23
2018-12-15T16:06:28.532Z,32.45
2018-12-15T16:09:00.120Z,32.85
2018-12-15T16:11:33.894Z,29.27
2018-12-15T16:14:06.148Z,21.25
2018-12-15T16:16:38.013Z,29.48
2018-12-15T16:19:09.514Z,40.20
2018-12-15T16:21:41.737Z,26.68
2018-12-15T16:24:13.031Z,20.45
2018-12-15T16:26:46.204Z,17.65
2018-12-15T16:29:18.160Z,11.45
2018-12-15T16:31:49.812Z,12.00
2018-12-15T16:34:21.778Z,23.40
2018-12-15T16:36:52.786Z,29.70
2018-12-15T16:39:24.672Z,28.55
2018-12-15T16:41:56.690Z,13.48
2018-12-15T16:44:28.491Z,10.15
2018-12-15T16:47:00.306Z,10.38
2018-12-15T16:49:31.678Z,13.28
2018-12-15T16:52:03.097Z,10.65
2018-12-15T16:54:34.747Z,10.45
2018-12-15T16:57:06.305Z,7.92
2018-12-15T16:59:38.102Z,9.38
2018-12-15T17:02:10.207Z,8.10
2018-12-15T17:04:41.459Z,6.42
2018-12-15T17:07:12.768Z,7.15
2018-12-15T17:09:44.519Z,6.55
2018-12-15T17:12:16.775Z,7.70
2018-12-15T17:14:48.034Z,7.90
2018-12-15T17:17:19.586Z,8.13
2018-12-15T17:19:51.435Z,7.75
2018-12-15T17:22:24.389Z,13.95
2018-12-15T17:24:55.344Z,8.70
2018-12-15T17:27:34.154Z,8.50
2018-12-15T17:30:06.972Z,10.93
2018-12-15T17:32:38.929Z,9.33
2018-12-15T17:35:13.936Z,6.80
2018-12-15T17:37:46.117Z,8.35
2018-12-15T17:40:20.104Z,7.40
2018-12-15T17:42:53.087Z,10.70
2018-12-15T17:45:26.602Z,18.90
2018-12-15T17:47:58.316Z,13.00
2018-12-15T17:50:30.954Z,13.43
2018-12-15T17:53:02.144Z,13.18
2018-12-15T17:55:34.201Z,9.10
2018-12-15T17:58:06.893Z,9.00
2018-12-15T18:00:42.355Z,9.08
2018-12-15T18:03:13.911Z,11.22
2018-12-15T18:05:45.148Z,11.80
2018-12-15T18:08:16.366Z,15.98
2018-12-15T18:10:47.581Z,19.87
2018-12-15T18:13:18.837Z,14.20
2018-12-15T18:15:52.601Z,15.98
2018-12-15T18:18:23.572Z,17.25
2018-12-15T18:20:55.055Z,12.03
2018-12-15T18:23:26.236Z,16.05
2018-12-15T18:25:57.160Z,32.28
2018-12-15T18:28:28.300Z,21.33
2018-12-15T18:30:59.626Z,14.23
2018-12-15T18:33:36.914Z,9.90
2018-12-15T18:36:04.268Z,6.12
2018-12-15T18:38:35.194Z,6.75
2018-12-15T18:41:06.390Z,8.13
2018-12-15T18:43:37.333Z,15.23
2018-12-15T18:46:08.922Z,25.57
2018-12-15T18:48:39.799Z,26.85
2018-12-15T18:51:16.318Z,33.18
2018-12-15T18:53:44.349Z,17.37
2018-12-15T18:56:15.203Z,12.70
2018-12-15T18:58:52.986Z,8.70
2018-12-15T19:01:23.947Z,6.83
2018-12-15T19:03:54.848Z,7.00
2018-12-15T19:06:25.901Z,8.70
2018-12-15T19:08:56.867Z,8.90
2018-12-15T19:11:28.042Z,9.30
2018-12-15T19:13:59.194Z,9.90
2018-12-15T19:16:30.836Z,10.45
2018-12-15T19:19:01.791Z,10.55
2018-12-15T19:21:33.357Z,13.13
2018-12-15T19:24:04.306Z,13.32
2018-12-15T19:26:35.240Z,11.08
2018-12-15T19:29:06.460Z,11.95
2018-12-15T19:31:37.440Z,12.25
2018-12-15T19:34:08.255Z,14.07
2018-12-15T19:36:39.229Z,17.00
2018-12-15T19:39:10.188Z,15.23
2018-12-15T19:41:41.424Z,12.55
2018-12-15T19:44:12.939Z,14.07
2018-12-15T19:46:44.151Z,13.18
2018-12-15T19:49:19.241Z,17.37
2018-12-15T19:51:50.368Z,13.68
2018-12-15T19:54:21.997Z,12.65
2018-12-15T19:56:53.713Z,12.07
2018-12-15T19:59:25.188Z,12.98
2018-12-15T20:01:57.540Z,11.73
2018-12-15T20:04:29.528Z,12.47
2018-12-15T20:07:02.058Z,13.83
2018-12-15T20:09:33.508Z,14.93
2018-12-15T20:12:06.688Z,11.97
2018-12-15T20:14:39.022Z,13.62
2018-12-15T20:17:11.617Z,13.98
2018-12-15T20:19:43.098Z,18.77
2018-12-15T20:22:14.776Z,16.82
2018-12-15T20:24:46.743Z,15.43
2018-12-15T20:27:18.148Z,13.78
2018-12-15T20:29:49.204Z,12.25
2018-12-15T20:32:21.250Z,12.13
2018-12-15T20:34:53.295Z,12.20
2018-12-15T20:37:25.829Z,11.30
2018-12-15T20:39:57.697Z,11.22
2018-12-15T20:42:29.828Z,12.90
2018-12-15T20:45:03.513Z,13.13
2018-12-15T20:47:35.346Z,12.63
2018-12-15T20:50:10.087Z,13.45
2018-12-15T20:52:47.567Z,14.28
2018-12-15T20:55:18.428Z,17.17
2018-12-15T20:57:53.871Z,19.10
2018-12-15T21:00:25.340Z,13.28
2018-12-15T21:02:56.948Z,12.30
2018-12-15T21:05:29.107Z,12.33
2018-12-15T21:08:01.000Z,12.93
2018-12-15T21:10:33.972Z,13.05
2018-12-15T21:13:05.882Z,14.30
2018-12-15T21:15:44.337Z,10.65
2018-12-15T21:18:16.287Z,11.88
2018-12-15T21:20:48.707Z,11.22
2018-12-15T21:23:20.417Z,14.85
2018-12-15T21:25:52.561Z,11.10
2018-12-15T21:28:24.695Z,12.78
2018-12-15T21:30:58.660Z,12.30
2018-12-15T21:33:29.847Z,11.75
2018-12-15T21:36:01.994Z,11.90
2018-12-15T21:38:35.657Z,10.65
2018-12-15T21:41:07.808Z,11.05
2018-12-15T21:43:40.735Z,12.03
2018-12-15T21:46:12.101Z,11.12
2018-12-15T21:48:43.783Z,12.35
2018-12-15T21:51:15.450Z,11.80
2018-12-15T21:53:46.694Z,12.15
2018-12-15T21:56:17.741Z,11.95
2018-12-15T21:58:49.430Z,15.85
2018-12-15T22:01:20.992Z,19.37
2018-12-15T22:03:56.908Z,18.65
2018-12-15T22:06:29.633Z,17.30
2018-12-15T22:09:00.883Z,18.80
2018-12-15T22:11:32.079Z,20.43
2018-12-15T22:14:03.656Z,20.97
2018-12-15T22:16:36.196Z,20.85
2018-12-15T22:19:07.552Z,19.37
2018-12-15T22:21:38.850Z,17.10
2018-12-15T22:24:10.756Z,16.87
2018-12-15T22:26:42.465Z,17.10
2018-12-15T22:29:13.474Z,18.90
2018-12-15T22:31:45.398Z,24.40
2018-12-15T22:34:16.725Z,21.07
2018-12-15T22:36:48.775Z,19.15
2018-12-15T22:39:20.847Z,18.23
2018-12-15T22:41:51.740Z,18.25
2018-12-15T22:44:23.037Z,18.42
2018-12-15T22:46:53.824Z,19.82
2018-12-15T22:49:25.014Z,18.27
2018-12-15T22:51:55.903Z,18.62
2018-12-15T22:54:26.899Z,15.80
2018-12-15T22:56:58.434Z,16.02
2018-12-15T22:59:29.527Z,15.13
2018-12-15T23:02:00.883Z,13.30
2018-12-15T23:04:32.466Z,13.38
2018-12-15T23:07:04.432Z,13.88
2018-12-15T23:09:35.655Z,14.45
2018-12-15T23:12:06.878Z,13.15
2018-12-15T23:14:37.818Z,13.98
2018-12-15T23:17:08.674Z,12.75
2018-12-15T23:19:39.669Z,14.50
2018-12-15T23:22:16.322Z,13.00
2018-12-15T23:24:44.236Z,13.15
2018-12-15T23:27:15.329Z,13.38
2018-12-15T23:29:46.499Z,14.03
2018-12-15T23:32:17.202Z,14.95
2018-12-15T23:34:48.255Z,14.30
2018-12-15T23:37:19.771Z,14.43
2018-12-15T23:39:50.692Z,13.72
2018-12-15T23:42:21.580Z,14.18
2018-12-15T23:44:52.450Z,16.12
2018-12-15T23:47:23.283Z,20.52
2018-12-15T23:49:54.221Z,32.50
2018-12-15T23:52:25.128Z,29.55
2018-12-15T23:54:57.163Z,17.17
2018-12-15T23:57:28.130Z,26.23
2018-12-15T23:59:58.943Z,30.23
